Time;durP1;ratioP1;P1;durP2;ratioP2;P2;SDS_P1;SDS_P2;PMS_P1;PMS_P2;Temp;Humidity;BMP_temperature;BMP_pressure;BME280_temperature;BME280_humidity;BME280_pressure;Samples;Min_cycle;Max_cycle;Signal;HPM_P1;HPM_P2
2021/09/19 00:00:01;;;;;;;4.05;2.20;;;;;;;;;;5009779;28;20022;-63
2021/09/19 00:02:27;;;;;;;7.75;1.90;;;;;;;;;;4982943;28;20111;-61
2021/09/19 00:04:52;;;;;;;4.78;2.03;;;;;;;;;;4995522;28;20037;-62
2021/09/19 00:07:20;;;;;;;2.70;2.10;;;;;;;;;;4995511;28;20033;-62
2021/09/19 00:09:46;;;;;;;3.10;2.03;;;;;;;;;;4993454;28;20068;-61
2021/09/19 00:12:15;;;;;;;6.75;1.88;;;;;;;;;;4996244;28;20117;-62
2021/09/19 00:14:44;;;;;;;1.50;1.40;;;;;;;;;;4980379;28;20026;-61
2021/09/19 00:17:13;;;;;;;3.45;1.98;;;;;;;;;;4994553;28;20029;-62
2021/09/19 00:19:39;;;;;;;2.15;1.90;;;;;;;;;;4979997;28;20029;-63
2021/09/19 00:22:07;;;;;;;1.88;1.77;;;;;;;;;;4974043;28;20524;-61
2021/09/19 00:24:39;;;;;;;5.07;1.77;;;;;;;;;;4959590;28;20132;-63
2021/09/19 00:27:10;;;;;;;2.22;2.03;;;;;;;;;;4973403;28;20030;-61
2021/09/19 00:29:38;;;;;;;3.45;1.83;;;;;;;;;;5008423;28;20120;-62
2021/09/19 00:32:11;;;;;;;3.30;2.03;;;;;;;;;;4972526;28;20030;-62
2021/09/19 00:34:36;;;;;;;2.40;1.75;;;;;;;;;;4978229;28;20037;-62
2021/09/19 00:37:02;;;;;;;2.10;1.70;;;;;;;;;;4984256;28;20127;-61
2021/09/19 00:39:30;;;;;;;2.88;2.10;;;;;;;;;;5007248;28;20041;-62
2021/09/19 00:41:55;;;;;;;6.47;2.03;;;;;;;;;;4983077;28;20120;-62
2021/09/19 00:44:24;;;;;;;3.78;2.35;;;;;;;;;;4959371;28;20041;-62
2021/09/19 00:46:53;;;;;;;2.53;1.90;;;;;;;;;;4992301;28;20034;-63
2021/09/19 00:49:18;;;;;;;3.60;2.65;;;;;;;;;;4991864;28;20040;-62
2021/09/19 00:51:44;;;;;;;2.55;1.70;;;;;;;;;;4995969;28;20041;-62
2021/09/19 00:54:12;;;;;;;3.85;2.63;;;;;;;;;;4992930;28;20030;-62
2021/09/19 00:56:39;;;;;;;3.25;2.67;;;;;;;;;;4977404;28;20048;-60
2021/09/19 00:59:09;;;;;;;4.75;2.70;;;;;;;;;;4994822;28;21676;-61
2021/09/19 01:01:35;;;;;;;3.35;2.55;;;;;;;;;;4966538;28;20060;-62
2021/09/19 01:04:03;;;;;;;5.47;2.47;;;;;;;;;;4995359;28;20022;-61
2021/09/19 01:06:30;;;;;;;4.07;2.40;;;;;;;;;;4989353;28;20813;-61
2021/09/19 01:09:01;;;;;;;5.22;2.50;;;;;;;;;;4993295;28;20464;-62
2021/09/19 01:11:27;;;;;;;3.78;2.58;;;;;;;;;;4985549;28;20033;-61
2021/09/19 01:13:55;;;;;;;6.18;3.03;;;;;;;;;;4988763;28;20497;-62
2021/09/19 01:16:26;;;;;;;3.63;2.97;;;;;;;;;;4992837;28;20029;-61
2021/09/19 01:18:54;;;;;;;4.95;3.40;;;;;;;;;;5013016;28;20044;-63
2021/09/19 01:21:20;;;;;;;9.80;3.97;;;;;;;;;;4996021;28;20048;-62
2021/09/19 01:23:57;;;;;;;4.68;3.50;;;;;;;;;;4995082;28;20037;-61
2021/09/19 01:26:26;;;;;;;6.10;3.83;;;;;;;;;;4988063;28;21812;-62
2021/09/19 01:28:51;;;;;;;6.43;3.92;;;;;;;;;;4978117;28;20504;-61
2021/09/19 01:31:21;;;;;;;16.88;4.30;;;;;;;;;;4982656;28;20579;-62
2021/09/19 01:33:50;;;;;;;4.85;3.58;;;;;;;;;;4997640;28;20068;-62
2021/09/19 01:36:15;;;;;;;5.28;4.00;;;;;;;;;;4994627;28;20095;-62
2021/09/19 01:38:41;;;;;;;11.23;4.53;;;;;;;;;;4993065;28;20045;-62
2021/09/19 01:41:15;;;;;;;5.80;4.32;;;;;;;;;;4981338;28;20060;-62
2021/09/19 01:43:40;;;;;;;9.50;4.60;;;;;;;;;;4996276;28;20041;-62
2021/09/19 01:46:05;;;;;;;7.20;4.05;;;;;;;;;;4979860;28;20067;-59
2021/09/19 01:48:37;;;;;;;5.72;3.95;;;;;;;;;;4997218;28;20056;-62
2021/09/19 01:51:04;;;;;;;5.40;4.30;;;;;;;;;;4998665;28;20075;-62
2021/09/19 01:53:29;;;;;;;8.63;4.13;;;;;;;;;;4971891;28;20026;-61
2021/09/19 01:55:55;;;;;;;7.18;4.00;;;;;;;;;;4997740;28;20782;-61
2021/09/19 01:58:24;;;;;;;13.85;5.18;;;;;;;;;;4996443;28;20891;-61
2021/09/19 02:00:55;;;;;;;10.30;4.50;;;;;;;;;;4998319;28;20021;-62
2021/09/19 02:03:21;;;;;;;9.05;4.22;;;;;;;;;;4997592;28;20037;-61
2021/09/19 02:05:46;;;;;;;5.97;3.78;;;;;;;;;;4993177;28;20065;-62
2021/09/19 02:08:12;;;;;;;7.57;4.80;;;;;;;;;;4978956;28;20121;-60
2021/09/19 02:10:42;;;;;;;8.15;4.13;;;;;;;;;;4998033;28;20080;-61
2021/09/19 02:13:10;;;;;;;6.65;4.13;;;;;;;;;;4976494;28;20492;-59
2021/09/19 02:15:36;;;;;;;6.00;3.90;;;;;;;;;;5008696;28;20602;-61
2021/09/19 02:18:03;;;;;;;11.48;4.32;;;;;;;;;;4972352;28;20026;-59
2021/09/19 02:20:31;;;;;;;5.28;3.70;;;;;;;;;;4996502;28;20068;-62
2021/09/19 02:22:59;;;;;;;9.98;4.32;;;;;;;;;;4974798;28;22104;-61
2021/09/19 02:25:27;;;;;;;5.90;3.47;;;;;;;;;;4986864;28;20061;-61
2021/09/19 02:27:55;;;;;;;7.25;3.65;;;;;;;;;;4979823;28;20049;-60
2021/09/19 02:30:20;;;;;;;8.32;3.65;;;;;;;;;;4988156;28;20081;-61
2021/09/19 02:32:45;;;;;;;7.65;3.47;;;;;;;;;;4979961;28;20914;-61
2021/09/19 02:35:16;;;;;;;6.65;3.90;;;;;;;;;;4997375;28;20041;-61
2021/09/19 02:37:47;;;;;;;5.55;3.60;;;;;;;;;;4995549;28;20223;-60
2021/09/19 02:40:18;;;;;;;7.30;3.33;;;;;;;;;;4997474;28;20105;-60
2021/09/19 02:42:43;;;;;;;11.82;3.63;;;;;;;;;;4995834;28;20128;-61
2021/09/19 02:45:10;;;;;;;9.55;4.35;;;;;;;;;;4991096;28;20935;-62
2021/09/19 02:47:35;;;;;;;10.00;3.53;;;;;;;;;;4994545;28;20045;-60
2021/09/19 02:50:02;;;;;;;6.82;3.28;;;;;;;;;;4993885;28;20033;-62
2021/09/19 02:52:28;;;;;;;5.15;3.35;;;;;;;;;;4994928;28;20041;-63
2021/09/19 02:54:53;;;;;;;7.60;3.30;;;;;;;;;;4979930;28;20048;-63
2021/09/19 02:57:21;;;;;;;7.70;3.28;;;;;;;;;;4996014;28;20567;-61
2021/09/19 02:59:49;;;;;;;9.90;3.30;;;;;;;;;;5011726;28;20017;-61
2021/09/19 03:02:17;;;;;;;6.93;2.65;;;;;;;;;;4997309;28;20037;-61
2021/09/19 03:04:44;;;;;;;7.20;3.38;;;;;;;;;;4996393;28;20038;-60
2021/09/19 03:07:13;;;;;;;5.55;2.85;;;;;;;;;;4998244;28;20033;-60
2021/09/19 03:09:43;;;;;;;11.02;3.00;;;;;;;;;;4995639;28;20041;-61
2021/09/19 03:12:10;;;;;;;5.57;3.13;;;;;;;;;;5011803;28;20033;-62
2021/09/19 03:14:38;;;;;;;5.65;2.70;;;;;;;;;;4974695;28;20036;-60
2021/09/19 03:17:09;;;;;;;6.63;3.20;;;;;;;;;;4996291;28;20338;-61
2021/09/19 03:19:37;;;;;;;5.32;2.97;;;;;;;;;;4997757;28;20038;-62
2021/09/19 03:22:02;;;;;;;7.15;2.65;;;;;;;;;;4979909;28;20065;-60
2021/09/19 03:24:31;;;;;;;7.85;2.95;;;;;;;;;;4974746;28;20262;-60
2021/09/19 03:26:59;;;;;;;5.32;2.83;;;;;;;;;;4995450;28;20041;-62
2021/09/19 03:29:27;;;;;;;7.25;3.80;;;;;;;;;;5007957;28;20044;-61
2021/09/19 03:31:52;;;;;;;7.53;3.15;;;;;;;;;;4989996;28;20148;-63
2021/09/19 03:34:18;;;;;;;4.88;2.88;;;;;;;;;;4993474;28;20764;-61
2021/09/19 03:36:49;;;;;;;4.57;2.85;;;;;;;;;;4977987;28;20038;-61
2021/09/19 03:39:17;;;;;;;6.45;2.70;;;;;;;;;;4979705;28;20030;-60
2021/09/19 03:41:43;;;;;;;7.90;3.60;;;;;;;;;;4961800;28;20037;-62
2021/09/19 03:44:10;;;;;;;8.13;3.17;;;;;;;;;;4992947;28;20042;-62
2021/09/19 03:46:39;;;;;;;5.07;3.42;;;;;;;;;;4981099;28;20038;-61
2021/09/19 03:49:09;;;;;;;11.70;3.15;;;;;;;;;;4993307;28;20030;-60
2021/09/19 03:51:36;;;;;;;6.78;2.75;;;;;;;;;;4995130;28;20163;-62
2021/09/19 03:54:05;;;;;;;7.43;2.50;;;;;;;;;;4995820;28;20054;-61
2021/09/19 03:56:32;;;;;;;5.63;2.45;;;;;;;;;;4992958;28;20030;-62
2021/09/19 03:58:57;;;;;;;4.10;2.72;;;;;;;;;;4976670;28;20065;-61
2021/09/19 04:01:23;;;;;;;11.90;3.10;;;;;;;;;;4995903;28;20025;-59
2021/09/19 04:03:48;;;;;;;5.30;2.70;;;;;;;;;;4990804;28;20034;-61
2021/09/19 04:06:14;;;;;;;7.70;3.05;;;;;;;;;;5010154;28;20064;-60
2021/09/19 04:08:39;;;;;;;3.42;2.60;;;;;;;;;;4992949;28;20140;-60
2021/09/19 04:11:07;;;;;;;4.60;2.72;;;;;;;;;;4990832;28;20042;-60
2021/09/19 04:13:33;;;;;;;7.07;3.00;;;;;;;;;;4954228;28;22211;-62
2021/09/19 04:16:01;;;;;;;4.70;2.42;;;;;;;;;;4976551;28;20033;-60
2021/09/19 04:18:31;;;;;;;9.10;3.13;;;;;;;;;;4972732;28;20092;-59
2021/09/19 04:20:59;;;;;;;4.07;2.90;;;;;;;;;;4991992;28;20216;-60
2021/09/19 04:23:24;;;;;;;7.85;2.63;;;;;;;;;;4986363;28;20742;-60
2021/09/19 04:25:52;;;;;;;8.25;3.58;;;;;;;;;;4978713;28;22070;-59
2021/09/19 04:28:17;;;;;;;8.00;2.80;;;;;;;;;;4974130;28;20033;-58
2021/09/19 04:30:45;;;;;;;4.00;2.63;;;;;;;;;;4996086;28;20443;-60
2021/09/19 04:33:13;;;;;;;5.40;2.75;;;;;;;;;;4977983;28;20037;-59
2021/09/19 04:35:39;;;;;;;5.55;3.10;;;;;;;;;;5009685;28;20040;-60
2021/09/19 04:38:04;;;;;;;4.90;3.08;;;;;;;;;;4993860;28;20051;-60
2021/09/19 04:40:32;;;;;;;5.18;2.30;;;;;;;;;;4995794;28;20044;-59
2021/09/19 04:43:03;;;;;;;5.68;2.22;;;;;;;;;;5004945;28;20033;-60
2021/09/19 04:45:33;;;;;;;4.35;2.95;;;;;;;;;;4977506;28;20045;-60
2021/09/19 04:48:01;;;;;;;7.63;2.80;;;;;;;;;;5005031;28;20116;-60
2021/09/19 04:50:29;;;;;;;7.90;2.70;;;;;;;;;;5001562;28;22173;-60
2021/09/19 04:52:57;;;;;;;5.72;2.85;;;;;;;;;;4961167;28;20048;-61
2021/09/19 04:55:22;;;;;;;6.03;3.03;;;;;;;;;;5001582;28;20032;-60
2021/09/19 04:57:53;;;;;;;7.88;2.65;;;;;;;;;;4999771;28;20101;-60
2021/09/19 05:00:19;;;;;;;4.15;2.50;;;;;;;;;;4994346;28;20132;-60
2021/09/19 05:02:44;;;;;;;5.03;2.65;;;;;;;;;;5001037;28;20025;-60
2021/09/19 05:05:12;;;;;;;7.90;2.78;;;;;;;;;;4995017;28;20049;-61
2021/09/19 05:07:38;;;;;;;7.72;2.83;;;;;;;;;;4982708;28;20048;-60
2021/09/19 05:10:03;;;;;;;11.32;2.88;;;;;;;;;;4994024;28;20037;-60
2021/09/19 05:12:29;;;;;;;3.33;2.35;;;;;;;;;;5003695;28;20053;-60
2021/09/19 05:14:55;;;;;;;6.47;3.08;;;;;;;;;;4964935;28;20040;-61
2021/09/19 05:17:21;;;;;;;9.70;3.10;;;;;;;;;;4982911;28;20044;-60
2021/09/19 05:19:46;;;;;;;5.13;2.78;;;;;;;;;;4998696;28;20029;-61
2021/09/19 05:22:19;;;;;;;3.33;2.20;;;;;;;;;;4984166;28;20042;-59
2021/09/19 05:24:47;;;;;;;8.82;3.15;;;;;;;;;;5007529;28;20042;-59
2021/09/19 05:27:15;;;;;;;5.80;2.53;;;;;;;;;;4997489;28;21039;-60
2021/09/19 05:29:40;;;;;;;6.70;2.65;;;;;;;;;;4980696;28;20037;-61
2021/09/19 05:32:05;;;;;;;6.47;2.88;;;;;;;;;;4981173;28;20120;-60
2021/09/19 05:34:31;;;;;;;4.28;2.17;;;;;;;;;;4958915;28;20124;-61
2021/09/19 05:37:00;;;;;;;4.75;3.00;;;;;;;;;;4993776;28;20055;-60
2021/09/19 05:39:27;;;;;;;5.40;2.22;;;;;;;;;;4998641;28;20034;-62
2021/09/19 05:41:54;;;;;;;5.35;2.33;;;;;;;;;;4998986;28;20065;-61
2021/09/19 05:44:22;;;;;;;5.65;2.47;;;;;;;;;;4998516;28;20499;-60
2021/09/19 05:46:47;;;;;;;6.40;2.70;;;;;;;;;;4980283;28;20064;-61
2021/09/19 05:49:13;;;;;;;4.28;2.72;;;;;;;;;;4983375;28;20147;-60
2021/09/19 05:51:38;;;;;;;11.18;3.00;;;;;;;;;;4999861;28;20041;-61
2021/09/19 05:54:04;;;;;;;6.10;2.63;;;;;;;;;;4998247;28;20152;-61
2021/09/19 05:56:30;;;;;;;8.38;2.85;;;;;;;;;;4998812;28;20025;-60
2021/09/19 05:58:56;;;;;;;4.97;2.88;;;;;;;;;;4963724;28;20054;-60
2021/09/19 06:01:21;;;;;;;4.05;2.70;;;;;;;;;;5001325;28;20061;-60
2021/09/19 06:03:49;;;;;;;14.43;3.00;;;;;;;;;;4995614;28;20161;-60
2021/09/19 06:06:15;;;;;;;5.25;2.38;;;;;;;;;;4980747;28;20091;-61
2021/09/19 06:08:45;;;;;;;5.93;2.67;;;;;;;;;;4998162;28;20037;-61
2021/09/19 06:11:11;;;;;;;4.10;2.65;;;;;;;;;;4980379;28;20036;-62
2021/09/19 06:13:41;;;;;;;8.82;2.70;;;;;;;;;;4955532;28;20038;-60
2021/09/19 06:16:09;;;;;;;5.43;2.60;;;;;;;;;;4982544;28;20042;-61
2021/09/19 06:18:35;;;;;;;5.45;2.75;;;;;;;;;;4998600;28;20545;-61
2021/09/19 06:21:01;;;;;;;4.38;2.50;;;;;;;;;;4998577;28;21300;-62
2021/09/19 06:23:26;;;;;;;5.50;3.00;;;;;;;;;;4982285;28;20136;-60
2021/09/19 06:25:54;;;;;;;7.82;2.78;;;;;;;;;;4980511;28;20076;-60
2021/09/19 06:28:22;;;;;;;6.22;2.78;;;;;;;;;;4995803;28;20034;-61
2021/09/19 06:30:50;;;;;;;5.00;2.53;;;;;;;;;;4984592;28;20522;-59
2021/09/19 06:33:15;;;;;;;4.85;2.80;;;;;;;;;;4997088;28;20103;-59
2021/09/19 06:35:41;;;;;;;3.15;2.33;;;;;;;;;;4999068;28;20026;-60
2021/09/19 06:38:07;;;;;;;6.55;2.70;;;;;;;;;;5012300;28;20056;-62
2021/09/19 06:40:32;;;;;;;4.93;3.03;;;;;;;;;;4995205;28;20630;-58
2021/09/19 06:43:01;;;;;;;5.22;2.83;;;;;;;;;;4995763;28;21972;-60
2021/09/19 06:45:29;;;;;;;7.15;2.78;;;;;;;;;;4997235;28;20029;-59
2021/09/19 06:47:56;;;;;;;6.18;2.55;;;;;;;;;;4977417;28;20080;-59
2021/09/19 06:50:25;;;;;;;5.60;3.17;;;;;;;;;;4997176;28;20119;-60
2021/09/19 06:52:50;;;;;;;5.35;2.75;;;;;;;;;;4993649;28;20038;-61
2021/09/19 06:55:16;;;;;;;6.70;3.13;;;;;;;;;;4994163;28;20054;-60
2021/09/19 06:57:41;;;;;;;18.90;3.17;;;;;;;;;;4975776;28;20036;-60
2021/09/19 07:00:07;;;;;;;4.53;2.45;;;;;;;;;;4970175;28;20039;-61
2021/09/19 07:02:33;;;;;;;5.93;2.60;;;;;;;;;;4996023;28;20068;-61
2021/09/19 07:04:59;;;;;;;7.38;2.85;;;;;;;;;;4995468;28;20025;-61
2021/09/19 07:07:26;;;;;;;3.10;2.05;;;;;;;;;;4973604;28;20045;-60
2021/09/19 07:09:54;;;;;;;9.35;2.65;;;;;;;;;;4975824;28;20064;-61
2021/09/19 07:12:20;;;;;;;5.55;2.55;;;;;;;;;;5011543;28;20038;-60
2021/09/19 07:14:45;;;;;;;4.22;2.65;;;;;;;;;;4991636;28;20183;-61
2021/09/19 07:17:14;;;;;;;11.77;3.15;;;;;;;;;;4995498;28;20555;-60
2021/09/19 07:19:42;;;;;;;8.80;2.70;;;;;;;;;;4974314;28;20107;-60
2021/09/19 07:22:07;;;;;;;3.67;1.95;;;;;;;;;;4978652;28;21851;-61
2021/09/19 07:24:35;;;;;;;6.65;2.47;;;;;;;;;;4994466;28;20042;-61
2021/09/19 07:27:04;;;;;;;4.22;2.40;;;;;;;;;;4990243;28;21066;-61
2021/09/19 07:29:30;;;;;;;5.68;2.53;;;;;;;;;;4990251;28;20030;-61
2021/09/19 07:32:01;;;;;;;4.78;2.40;;;;;;;;;;4994136;28;20056;-61
2021/09/19 07:34:27;;;;;;;4.55;2.50;;;;;;;;;;4955112;28;20131;-61
2021/09/19 07:36:57;;;;;;;4.97;2.80;;;;;;;;;;5009450;28;20040;-59
2021/09/19 07:39:26;;;;;;;5.78;2.97;;;;;;;;;;4976173;28;20424;-62
2021/09/19 07:41:56;;;;;;;11.27;3.42;;;;;;;;;;4991260;28;20033;-61
2021/09/19 07:44:22;;;;;;;4.03;2.67;;;;;;;;;;4992770;28;20113;-62
2021/09/19 07:46:49;;;;;;;5.40;2.80;;;;;;;;;;4987449;28;20083;-62
2021/09/19 07:49:20;;;;;;;3.72;2.50;;;;;;;;;;4983263;28;20037;-61
2021/09/19 07:51:46;;;;;;;6.40;2.55;;;;;;;;;;5010599;28;20037;-61
2021/09/19 07:54:11;;;;;;;4.25;2.30;;;;;;;;;;4991639;28;20408;-61
2021/09/19 07:56:37;;;;;;;9.15;2.78;;;;;;;;;;4977291;28;21294;-61
2021/09/19 07:59:04;;;;;;;5.75;3.05;;;;;;;;;;4978134;28;20032;-62
2021/09/19 08:01:30;;;;;;;4.72;2.33;;;;;;;;;;4994375;28;20033;-60
2021/09/19 08:03:55;;;;;;;5.43;2.50;;;;;;;;;;4978544;28;20560;-61
2021/09/19 08:06:22;;;;;;;7.93;2.50;;;;;;;;;;4993201;28;22198;-62
2021/09/19 08:08:50;;;;;;;5.78;2.28;;;;;;;;;;4992304;28;20034;-61
2021/09/19 08:11:16;;;;;;;5.70;2.70;;;;;;;;;;4960870;28;20048;-62
2021/09/19 08:13:46;;;;;;;7.55;2.90;;;;;;;;;;4990467;28;20022;-61
2021/09/19 08:16:11;;;;;;;5.82;2.85;;;;;;;;;;4972248;28;20255;-60
2021/09/19 08:18:37;;;;;;;6.40;3.47;;;;;;;;;;4994407;28;20666;-60
2021/09/19 08:21:05;;;;;;;8.05;2.90;;;;;;;;;;4996036;28;20033;-62
2021/09/19 08:23:34;;;;;;;7.03;2.58;;;;;;;;;;4998050;28;20084;-60
2021/09/19 08:25:59;;;;;;;6.35;2.38;;;;;;;;;;4996404;28;22035;-62
2021/09/19 08:28:25;;;;;;;4.30;2.80;;;;;;;;;;4995623;28;20067;-62
2021/09/19 08:30:55;;;;;;;5.82;3.33;;;;;;;;;;4980367;28;20125;-63
2021/09/19 08:33:27;;;;;;;4.03;2.20;;;;;;;;;;4996446;28;20037;-61
2021/09/19 08:35:59;;;;;;;3.72;2.42;;;;;;;;;;4998489;28;20034;-61
2021/09/19 08:38:25;;;;;;;6.05;2.40;;;;;;;;;;4992678;28;20477;-59
2021/09/19 08:40:53;;;;;;;4.05;2.47;;;;;;;;;;4998798;28;20032;-61
2021/09/19 08:43:19;;;;;;;3.63;2.53;;;;;;;;;;4996083;28;20041;-62
2021/09/19 08:45:47;;;;;;;6.47;2.90;;;;;;;;;;4997048;28;21026;-62
2021/09/19 08:48:17;;;;;;;4.25;2.40;;;;;;;;;;4996748;28;20034;-60
2021/09/19 08:50:44;;;;;;;4.07;2.30;;;;;;;;;;4980257;28;20641;-61
2021/09/19 08:53:10;;;;;;;2.72;2.15;;;;;;;;;;4997809;28;20079;-61
2021/09/19 08:55:40;;;;;;;3.25;2.45;;;;;;;;;;4976995;28;20032;-61
2021/09/19 08:58:08;;;;;;;6.25;2.50;;;;;;;;;;4998005;28;20022;-62
2021/09/19 09:00:41;;;;;;;5.00;2.40;;;;;;;;;;5001121;28;21016;-61
2021/09/19 09:03:13;;;;;;;5.72;2.53;;;;;;;;;;4968717;28;20044;-61
2021/09/19 09:05:41;;;;;;;3.75;2.38;;;;;;;;;;4996994;28;20034;-61
2021/09/19 09:08:08;;;;;;;5.57;2.78;;;;;;;;;;4988538;28;20124;-60
2021/09/19 09:10:38;;;;;;;6.63;2.22;;;;;;;;;;5008472;28;20033;-61
2021/09/19 09:13:16;;;;;;;4.38;2.30;;;;;;;;;;4998576;28;20129;-61
2021/09/19 09:15:43;;;;;;;5.22;2.67;;;;;;;;;;4994041;28;20030;-60
2021/09/19 09:18:13;;;;;;;5.20;2.50;;;;;;;;;;4994930;28;20083;-61
2021/09/19 09:20:48;;;;;;;5.82;2.40;;;;;;;;;;4991168;28;20038;-63
2021/09/19 09:23:32;;;;;;;8.32;2.60;;;;;;;;;;4996115;28;20041;-62
2021/09/19 09:26:07;;;;;;;5.50;2.85;;;;;;;;;;4991539;28;20114;-61
2021/09/19 09:28:48;;;;;;;3.90;2.40;;;;;;;;;;4986182;28;20202;-61
2021/09/19 09:31:21;;;;;;;3.15;2.08;;;;;;;;;;4997542;28;20143;-63
2021/09/19 09:33:56;;;;;;;4.07;2.30;;;;;;;;;;5001162;28;20150;-62
2021/09/19 09:36:37;;;;;;;5.25;2.38;;;;;;;;;;4998903;28;20030;-62
2021/09/19 09:39:21;;;;;;;6.72;3.10;;;;;;;;;;5000762;28;20083;-61
2021/09/19 09:41:47;;;;;;;2.10;1.80;;;;;;;;;;5000563;28;20060;-61
2021/09/19 09:44:33;;;;;;;3.30;2.20;;;;;;;;;;4960809;28;20974;-59
2021/09/19 09:47:00;;;;;;;3.33;1.70;;;;;;;;;;4981061;28;20041;-61
2021/09/19 09:49:34;;;;;;;2.60;2.08;;;;;;;;;;4996086;28;20029;-63
2021/09/19 09:52:26;;;;;;;3.08;2.25;;;;;;;;;;4992444;28;20087;-62
2021/09/19 09:55:00;;;;;;;6.13;2.53;;;;;;;;;;4981250;28;20493;-61
2021/09/19 09:57:35;;;;;;;4.13;2.20;;;;;;;;;;4998295;28;20487;-61
2021/09/19 10:00:05;;;;;;;2.90;2.17;;;;;;;;;;4997754;28;20049;-61
2021/09/19 10:02:31;;;;;;;8.88;2.05;;;;;;;;;;4981209;28;20061;-62
2021/09/19 10:04:57;;;;;;;3.13;2.38;;;;;;;;;;4999183;28;20087;-60
2021/09/19 10:07:23;;;;;;;2.78;1.95;;;;;;;;;;4981432;28;20068;-63
2021/09/19 10:09:54;;;;;;;3.00;2.10;;;;;;;;;;4998496;28;22021;-61
2021/09/19 10:12:21;;;;;;;5.82;1.90;;;;;;;;;;4998994;28;20066;-60
2021/09/19 10:14:55;;;;;;;7.85;2.13;;;;;;;;;;4998508;28;20030;-60
2021/09/19 10:17:24;;;;;;;3.92;1.67;;;;;;;;;;4998116;28;20030;-62
2021/09/19 10:19:50;;;;;;;3.85;1.98;;;;;;;;;;4976196;28;20486;-61
2021/09/19 10:22:25;;;;;;;6.18;2.00;;;;;;;;;;4982827;28;20033;-61
2021/09/19 10:24:51;;;;;;;5.53;2.00;;;;;;;;;;4977253;28;20531;-60
2021/09/19 10:27:23;;;;;;;2.00;1.63;;;;;;;;;;4977374;28;20033;-61
2021/09/19 10:30:06;;;;;;;3.38;2.00;;;;;;;;;;4997892;28;20025;-61
2021/09/19 10:32:35;;;;;;;6.63;1.98;;;;;;;;;;4996731;28;20033;-60
2021/09/19 10:35:00;;;;;;;3.70;1.73;;;;;;;;;;4982078;28;20119;-60
2021/09/19 10:37:45;;;;;;;1.98;1.42;;;;;;;;;;5014017;28;20053;-60
2021/09/19 10:40:10;;;;;;;;;;;;;;;;;;4998998;28;20045;-59
2021/09/19 10:42:39;;;;;;;3.47;1.73;;;;;;;;;;4994210;28;20314;-64
2021/09/19 10:45:16;;;;;;;7.50;1.60;;;;;;;;;;4999539;28;20588;-61
2021/09/19 10:47:43;;;;;;;4.57;1.67;;;;;;;;;;4981938;28;20042;-59
2021/09/19 10:50:17;;;;;;;3.03;1.45;;;;;;;;;;4998462;28;20571;-60
2021/09/19 10:52:48;;;;;;;4.35;1.65;;;;;;;;;;4992628;28;20116;-62
2021/09/19 10:55:19;;;;;;;2.70;1.83;;;;;;;;;;4990537;28;20025;-60
2021/09/19 10:57:52;;;;;;;2.78;1.65;;;;;;;;;;4993618;28;20048;-61
2021/09/19 11:00:20;;;;;;;3.30;1.60;;;;;;;;;;4997710;28;20038;-60
2021/09/19 11:02:59;;;;;;;2.55;1.40;;;;;;;;;;5014697;28;20088;-62
2021/09/19 11:05:29;;;;;;;3.13;1.52;;;;;;;;;;4998445;28;20055;-61
2021/09/19 11:08:09;;;;;;;2.28;1.52;;;;;;;;;;4984859;28;20034;-59
2021/09/19 11:10:46;;;;;;;2.05;1.85;;;;;;;;;;4998472;28;20053;-62
2021/09/19 11:13:21;;;;;;;1.88;1.42;;;;;;;;;;4998320;28;20038;-61
2021/09/19 11:16:01;;;;;;;2.53;1.73;;;;;;;;;;4995021;28;20033;-61
2021/09/19 11:18:29;;;;;;;2.25;1.40;;;;;;;;;;4997865;28;20920;-61
2021/09/19 11:21:12;;;;;;;3.40;1.35;;;;;;;;;;4998645;28;20030;-61
2021/09/19 11:23:39;;;;;;;2.97;1.67;;;;;;;;;;4998168;28;20044;-61
2021/09/19 11:26:05;;;;;;;1.90;1.20;;;;;;;;;;5005088;28;20029;-62
2021/09/19 11:28:33;;;;;;;2.33;1.60;;;;;;;;;;5008793;28;20037;-62
2021/09/19 11:31:01;;;;;;;2.67;2.10;;;;;;;;;;4981498;28;20606;-61
2021/09/19 11:33:32;;;;;;;2.40;1.45;;;;;;;;;;4998717;28;20030;-62
2021/09/19 11:36:00;;;;;;;1.58;1.40;;;;;;;;;;4997807;28;20429;-63
2021/09/19 11:38:26;;;;;;;2.50;1.38;;;;;;;;;;4971386;28;20128;-60
2021/09/19 11:40:58;;;;;;;8.95;1.65;;;;;;;;;;4980994;28;22007;-61
2021/09/19 11:43:27;;;;;;;6.10;1.75;;;;;;;;;;4986354;28;20033;-59
2021/09/19 11:45:52;;;;;;;3.95;1.70;;;;;;;;;;4979351;28;22004;-62
2021/09/19 11:48:18;;;;;;;5.38;1.58;;;;;;;;;;4981052;28;20040;-60
2021/09/19 11:50:45;;;;;;;1.67;1.20;;;;;;;;;;4996608;28;20723;-62
2021/09/19 11:53:10;;;;;;;1.65;1.27;;;;;;;;;;4992610;28;20080;-59
2021/09/19 11:55:44;;;;;;;3.20;1.60;;;;;;;;;;4998797;28;20065;-60
2021/09/19 11:58:11;;;;;;;;;;;;;;;;;;4995779;28;20501;-60
2021/09/19 12:00:37;;;;;;;1.30;1.20;;;;;;;;;;5013558;28;20430;-61
2021/09/19 12:03:05;;;;;;;3.92;1.40;;;;;;;;;;4975644;28;20082;-61
2021/09/19 12:05:36;;;;;;;2.38;1.45;;;;;;;;;;4996310;28;20033;-60
2021/09/19 12:08:01;;;;;;;4.78;1.95;;;;;;;;;;4997317;28;20438;-61
2021/09/19 12:10:27;;;;;;;6.47;1.92;;;;;;;;;;4976605;28;20495;-60
2021/09/19 12:12:52;;;;;;;3.35;1.40;;;;;;;;;;4996206;28;20041;-61
2021/09/19 12:15:29;;;;;;;1.73;1.38;;;;;;;;;;4979627;28;20354;-62
2021/09/19 12:18:05;;;;;;;1.95;1.30;;;;;;;;;;4995427;28;20030;-61
2021/09/19 12:20:31;;;;;;;1.55;1.00;;;;;;;;;;4993958;28;20127;-61
2021/09/19 12:23:16;;;;;;;2.15;1.27;;;;;;;;;;4996738;28;20591;-61
2021/09/19 12:25:50;;;;;;;1.30;1.20;;;;;;;;;;4993154;28;20148;-61
2021/09/19 12:28:27;;;;;;;2.05;1.20;;;;;;;;;;4993258;28;20041;-61
2021/09/19 12:30:57;;;;;;;2.90;1.50;;;;;;;;;;4989578;28;20120;-60
2021/09/19 12:33:24;;;;;;;5.00;1.52;;;;;;;;;;4978620;28;20033;-61
2021/09/19 12:35:52;;;;;;;1.75;1.48;;;;;;;;;;4995566;28;20036;-60
2021/09/19 12:38:20;;;;;;;4.38;2.13;;;;;;;;;;4996366;28;20111;-61
2021/09/19 12:40:46;;;;;;;5.22;1.70;;;;;;;;;;4996934;28;20481;-62
2021/09/19 12:43:14;;;;;;;5.13;1.90;;;;;;;;;;4989679;28;20045;-61
2021/09/19 12:45:47;;;;;;;4.40;1.58;;;;;;;;;;4990182;28;20041;-60
2021/09/19 12:48:21;;;;;;;2.38;1.77;;;;;;;;;;4996494;28;20045;-60
2021/09/19 12:50:52;;;;;;;3.65;1.83;;;;;;;;;;4998391;28;20033;-61
2021/09/19 12:53:22;;;;;;;2.60;1.60;;;;;;;;;;5008953;28;20045;-62
2021/09/19 12:55:50;;;;;;;6.07;1.67;;;;;;;;;;4993721;28;20025;-62
2021/09/19 12:58:18;;;;;;;3.22;1.33;;;;;;;;;;4992692;28;20042;-61
2021/09/19 13:00:46;;;;;;;3.55;1.42;;;;;;;;;;4988445;28;20481;-61
2021/09/19 13:03:12;;;;;;;3.72;1.50;;;;;;;;;;4978507;28;20046;-62
2021/09/19 13:05:37;;;;;;;2.00;1.63;;;;;;;;;;4980028;28;20029;-61
2021/09/19 13:08:03;;;;;;;3.28;1.60;;;;;;;;;;4976808;28;20044;-61
2021/09/19 13:10:30;;;;;;;4.65;1.42;;;;;;;;;;4996566;28;20042;-61
2021/09/19 13:12:58;;;;;;;1.70;1.60;;;;;;;;;;5015269;28;20029;-63
2021/09/19 13:15:24;;;;;;;1.98;1.30;;;;;;;;;;4989662;28;20038;-61
2021/09/19 13:17:53;;;;;;;3.40;1.60;;;;;;;;;;4983214;28;20033;-61
2021/09/19 13:20:19;;;;;;;2.20;1.45;;;;;;;;;;4995815;28;20053;-62
2021/09/19 13:22:47;;;;;;;3.40;1.77;;;;;;;;;;4999357;28;20042;-61
2021/09/19 13:25:18;;;;;;;1.75;1.42;;;;;;;;;;4999958;28;20033;-60
2021/09/19 13:27:43;;;;;;;3.90;1.67;;;;;;;;;;4978130;28;20067;-61
2021/09/19 13:30:09;;;;;;;3.72;1.23;;;;;;;;;;4982047;28;20029;-61
2021/09/19 13:32:35;;;;;;;2.97;1.33;;;;;;;;;;4998648;28;20048;-61
2021/09/19 13:35:00;;;;;;;2.70;1.60;;;;;;;;;;4994105;28;20092;-60
2021/09/19 13:37:28;;;;;;;1.17;1.05;;;;;;;;;;4983161;28;20049;-61
2021/09/19 13:39:56;;;;;;;2.00;1.33;;;;;;;;;;5006969;28;20028;-61
2021/09/19 13:42:22;;;;;;;1.92;1.42;;;;;;;;;;5000656;28;20041;-61
2021/09/19 13:44:47;;;;;;;1.60;1.30;;;;;;;;;;4999234;28;20040;-61
2021/09/19 13:47:14;;;;;;;1.10;1.00;;;;;;;;;;4993926;28;20042;-60
2021/09/19 13:49:40;;;;;;;1.15;1.05;;;;;;;;;;4999263;28;20096;-61
2021/09/19 13:52:08;;;;;;;2.70;1.35;;;;;;;;;;4998149;28;20045;-62
2021/09/19 13:54:36;;;;;;;2.42;1.40;;;;;;;;;;4999161;28;20025;-61
2021/09/19 13:57:02;;;;;;;2.90;1.52;;;;;;;;;;5000797;28;20030;-61
2021/09/19 13:59:30;;;;;;;3.20;1.58;;;;;;;;;;4976637;28;20036;-61
2021/09/19 14:01:56;;;;;;;2.67;1.50;;;;;;;;;;5000554;28;20965;-62
2021/09/19 14:04:24;;;;;;;1.70;1.50;;;;;;;;;;4999248;28;20072;-63
2021/09/19 14:06:49;;;;;;;4.55;1.45;;;;;;;;;;4980612;28;21048;-62
2021/09/19 14:09:17;;;;;;;2.17;1.60;;;;;;;;;;4978369;28;20145;-60
2021/09/19 14:11:46;;;;;;;3.25;1.48;;;;;;;;;;4999071;28;20038;-61
2021/09/19 14:14:15;;;;;;;2.25;1.27;;;;;;;;;;4998127;28;20032;-61
2021/09/19 14:16:41;;;;;;;3.47;1.10;;;;;;;;;;4998766;28;20044;-61
2021/09/19 14:19:09;;;;;;;3.15;1.27;;;;;;;;;;4998547;28;20060;-59
2021/09/19 14:21:37;;;;;;;2.33;1.00;;;;;;;;;;4997755;28;22020;-60
2021/09/19 14:24:05;;;;;;;3.85;1.38;;;;;;;;;;4964535;28;20025;-60
2021/09/19 14:26:33;;;;;;;3.65;1.35;;;;;;;;;;4994664;28;20160;-61
2021/09/19 14:28:59;;;;;;;9.25;1.83;;;;;;;;;;4976466;28;20139;-61
2021/09/19 14:31:24;;;;;;;1.42;1.00;;;;;;;;;;4978920;28;20029;-60
2021/09/19 14:33:49;;;;;;;2.90;1.15;;;;;;;;;;4994780;28;20055;-60
2021/09/19 14:36:20;;;;;;;2.30;1.17;;;;;;;;;;4996959;28;20338;-60
2021/09/19 14:38:46;;;;;;;1.88;1.20;;;;;;;;;;4995724;28;20108;-62
2021/09/19 14:41:11;;;;;;;1.88;1.40;;;;;;;;;;4982576;28;20107;-59
2021/09/19 14:43:38;;;;;;;2.22;1.40;;;;;;;;;;4993983;28;20177;-61
2021/09/19 14:46:07;;;;;;;6.75;1.20;;;;;;;;;;4992470;28;20034;-60
2021/09/19 14:48:36;;;;;;;6.07;1.65;;;;;;;;;;4996864;28;20750;-61